Time;durP1;ratioP1;P1;durP2;ratioP2;P2;SDS_P1;SDS_P2;PMS_P1;PMS_P2;Temp;Humidity;BMP_temperature;BMP_pressure;BME280_temperature;BME280_humidity;BME280_pressure;Samples;Min_cycle;Max_cycle;Signal;HPM_P1;HPM_P2
2023/03/20 00:00:56;;;;;;;29.57;12.97;;;;;;;-145.18;100.00;60484.78;5040761;28;20037;-63
2023/03/20 00:03:22;;;;;;;32.20;14.47;;;;;;;-145.18;100.00;60484.78;5035140;28;20033;-64
2023/03/20 00:05:49;;;;;;;32.77;15.13;;;;;;;-145.18;100.00;60484.78;5035419;28;20040;-64
2023/03/20 00:08:15;;;;;;;25.27;10.93;;;;;;;-145.18;100.00;60484.78;5036727;28;20156;-64
2023/03/20 00:10:44;;;;;;;30.83;13.57;;;;;;;-145.18;100.00;60484.78;5053667;28;20127;-64
2023/03/20 00:13:25;;;;;;;19.53;9.50;;;;;;;-145.18;100.00;60484.78;5051618;28;20493;-66
2023/03/20 00:15:52;;;;;;;18.88;8.48;;;;;;;-145.18;100.00;60484.78;5040885;28;20469;-64
2023/03/20 00:18:21;;;;;;;15.77;7.63;;;;;;;-145.18;100.00;60484.78;5045076;28;20041;-64
2023/03/20 00:20:49;;;;;;;15.90;7.63;;;;;;;-145.18;100.00;60484.78;5035959;28;20481;-63
2023/03/20 00:23:15;;;;;;;14.03;6.73;;;;;;;-145.18;100.00;60484.78;5035231;28;20017;-63
2023/03/20 00:25:42;;;;;;;12.47;6.30;;;;;;;-145.18;100.00;60484.78;5040291;28;20428;-63
2023/03/20 00:28:35;;;;;;;12.43;5.57;;;;;;;-145.18;100.00;60484.78;5038581;28;20029;-63
2023/03/20 00:31:00;;;;;;;11.90;6.00;;;;;;;-145.18;100.00;60484.78;5045743;28;20037;-63
2023/03/20 00:33:26;;;;;;;9.80;5.17;;;;;;;-145.18;100.00;60484.78;5041731;28;20536;-63
2023/03/20 00:35:51;;;;;;;8.83;4.57;;;;;;;-145.18;100.00;60484.78;5052503;28;20029;-64
2023/03/20 00:38:17;;;;;;;8.00;4.40;;;;;;;-145.18;100.00;60484.78;5044030;28;20039;-64
2023/03/20 00:40:43;;;;;;;8.07;4.23;;;;;;;-145.18;100.00;60484.78;5038521;28;20474;-63
2023/03/20 00:43:12;;;;;;;8.07;4.17;;;;;;;-145.18;100.00;60484.78;5042648;28;20393;-63
2023/03/20 00:45:38;;;;;;;9.93;4.77;;;;;;;-145.18;100.00;60484.78;5040234;28;20091;-64
2023/03/20 00:48:04;;;;;;;9.67;4.47;;;;;;;-145.18;100.00;60484.78;5039399;28;20033;-64
2023/03/20 00:50:30;;;;;;;8.07;4.47;;;;;;;-145.18;100.00;60484.78;5038386;28;20071;-64
2023/03/20 00:52:57;;;;;;;9.07;4.17;;;;;;;-145.18;100.00;60484.78;5034874;28;20057;-64
2023/03/20 00:55:28;;;;;;;8.23;4.30;;;;;;;-145.18;100.00;60484.78;5036840;28;20026;-63
2023/03/20 00:57:59;;;;;;;8.50;3.85;;;;;;;-145.18;100.00;60484.78;5042532;28;20040;-64
2023/03/20 01:00:42;;;;;;;6.05;3.25;;;;;;;-145.18;100.00;60484.78;5038851;28;20166;-64
2023/03/20 01:03:20;;;;;;;8.60;4.30;;;;;;;-145.18;100.00;60484.78;5034280;28;20034;-64
2023/03/20 01:05:45;;;;;;;8.93;5.00;;;;;;;-145.18;100.00;60484.78;5035352;28;20466;-63
2023/03/20 01:08:17;;;;;;;8.80;4.77;;;;;;;-145.18;100.00;60484.78;5040557;28;20021;-64
2023/03/20 01:10:45;;;;;;;9.53;5.00;;;;;;;-145.18;100.00;60484.78;5041032;28;20088;-64
2023/03/20 01:13:31;;;;;;;10.67;5.37;;;;;;;-145.18;100.00;60484.78;5045132;28;20036;-64
2023/03/20 01:15:57;;;;;;;10.73;5.30;;;;;;;-145.18;100.00;60484.78;5045160;28;20063;-63
2023/03/20 01:18:24;;;;;;;9.30;4.30;;;;;;;-145.18;100.00;60484.78;5041653;28;20017;-64
2023/03/20 01:20:51;;;;;;;11.13;5.87;;;;;;;-145.18;100.00;60484.78;5039272;28;20389;-64
2023/03/20 01:23:19;;;;;;;10.87;5.70;;;;;;;-145.18;100.00;60484.78;5047520;28;20028;-63
2023/03/20 01:25:44;;;;;;;10.00;4.87;;;;;;;-145.18;100.00;60484.78;5049253;28;20024;-63
2023/03/20 01:28:16;;;;;;;13.03;5.77;;;;;;;-145.18;100.00;60484.78;5033868;28;20470;-64
2023/03/20 01:30:42;;;;;;;11.60;5.78;;;;;;;-145.18;100.00;60484.78;5036390;28;20031;-64
2023/03/20 01:33:22;;;;;;;11.30;6.03;;;;;;;-145.18;100.00;60484.78;5050412;28;20498;-63
2023/03/20 01:35:49;;;;;;;11.48;5.55;;;;;;;-145.18;100.00;60484.78;5039133;28;20025;-64
2023/03/20 01:38:20;;;;;;;10.93;5.73;;;;;;;-145.18;100.00;60484.78;5035472;28;20025;-63
2023/03/20 01:41:03;;;;;;;11.65;5.88;;;;;;;-145.18;100.00;60484.78;5036197;28;20056;-64
2023/03/20 01:43:29;;;;;;;10.47;5.27;;;;;;;-145.18;100.00;60484.78;5039345;28;20030;-63
2023/03/20 01:46:03;;;;;;;10.70;5.87;;;;;;;-145.18;100.00;60484.78;5043552;28;20382;-63
2023/03/20 01:49:05;;;;;;;12.07;6.03;;;;;;;-145.18;100.00;60484.78;5037059;28;20029;-63
2023/03/20 01:51:31;;;;;;;10.03;5.07;;;;;;;-145.18;100.00;60484.78;5045619;28;20078;-63
2023/03/20 01:54:24;;;;;;;10.90;6.00;;;;;;;-145.18;100.00;60484.78;5033428;28;20025;-63
2023/03/20 01:56:59;;;;;;;10.67;5.03;;;;;;;-145.18;100.00;60484.78;5034158;28;20604;-62
2023/03/20 01:59:32;;;;;;;11.33;5.80;;;;;;;-145.18;100.00;60484.78;5036251;28;20048;-62
2023/03/20 02:01:58;;;;;;;13.13;6.00;;;;;;;-145.18;100.00;60484.78;5042200;28;20033;-65
2023/03/20 02:04:35;;;;;;;11.43;5.53;;;;;;;-145.18;100.00;60484.78;5056825;22;20037;-60
2023/03/20 02:07:02;;;;;;;11.03;5.90;;;;;;;-145.18;100.00;60484.78;5044520;28;20037;-60
2023/03/20 02:09:28;;;;;;;13.87;6.27;;;;;;;-145.18;100.00;60484.78;5039827;28;20047;-59
2023/03/20 02:11:55;;;;;;;12.83;5.97;;;;;;;-145.18;100.00;60484.78;5039936;28;20069;-59
2023/03/20 02:14:21;;;;;;;12.40;5.73;;;;;;;-145.18;100.00;60484.78;5048840;28;20432;-59
2023/03/20 02:16:46;;;;;;;12.27;6.03;;;;;;;-145.18;100.00;60484.78;5048029;28;20025;-59
2023/03/20 02:19:25;;;;;;;14.73;7.23;;;;;;;-145.18;100.00;60484.78;5043336;28;20086;-59
2023/03/20 02:22:40;;;;;;;14.03;7.20;;;;;;;-145.18;100.00;60484.78;5036755;28;20033;-59
2023/03/20 02:25:38;;;;;;;13.23;6.57;;;;;;;-145.18;100.00;60484.78;4912920;29;20452;-60
2023/03/20 02:28:48;;;;;;;14.03;6.80;;;;;;;-145.18;100.00;60484.78;4913728;29;20123;-59
2023/03/20 02:31:53;;;;;;;13.80;6.70;;;;;;;-145.18;100.00;60484.78;4857454;29;20498;-59
2023/03/20 02:34:58;;;;;;;13.07;6.30;;;;;;;-145.18;100.00;60484.78;4857405;29;20546;-60
2023/03/20 02:38:18;;;;;;;15.47;7.30;;;;;;;-145.18;100.00;60484.78;4855425;29;20057;-59
2023/03/20 02:41:16;;;;;;;15.97;7.27;;;;;;;-145.18;100.00;60484.78;4808203;29;20569;-60
2023/03/20 02:44:00;;;;;;;16.73;8.17;;;;;;;-145.18;100.00;60484.78;4856605;29;20120;-59
2023/03/20 02:46:57;;;;;;;15.87;7.90;;;;;;;-145.18;100.00;60484.78;4857725;29;20549;-60
2023/03/20 02:49:50;;;;;;;18.80;8.77;;;;;;;-145.18;100.00;60484.78;4801899;29;20050;-59
2023/03/20 02:52:50;;;;;;;17.67;8.37;;;;;;;-145.18;100.00;60484.78;4778582;29;20047;-59
2023/03/20 02:55:45;;;;;;;17.73;8.80;;;;;;;-145.18;100.00;60484.78;4801223;29;20496;-60
2023/03/20 02:58:18;;;;;;;17.70;8.47;;;;;;;-145.18;100.00;60484.78;4801599;29;20528;-60
2023/03/20 03:00:56;;;;;;;20.33;9.43;;;;;;;-145.18;100.00;60484.78;4848470;29;20047;-60
2023/03/20 03:03:37;;;;;;;22.23;10.00;;;;;;;-145.18;100.00;60484.78;4910570;29;20092;-59
2023/03/20 03:06:28;;;;;;;19.20;9.17;;;;;;;-145.18;100.00;60484.78;4912502;29;20490;-59
2023/03/20 03:09:09;;;;;;;18.55;9.55;;;;;;;-145.18;100.00;60484.78;4964388;28;20093;-59
2023/03/20 03:11:41;;;;;;;20.10;9.43;;;;;;;-145.18;100.00;60484.78;4982469;28;20031;-59
2023/03/20 03:14:07;;;;;;;;;;;;;;;-145.18;100.00;60484.78;4985962;28;20034;-59
2023/03/20 03:16:36;;;;;;;20.07;9.40;;;;;;;-145.18;100.00;60484.78;4972621;28;19921;-58
2023/03/20 03:19:10;;;;;;;20.37;9.33;;;;;;;-145.18;100.00;60484.78;4971372;28;20065;-59
2023/03/20 03:21:38;;;;;;;23.47;9.80;;;;;;;-145.18;100.00;60484.78;4977081;28;20519;-59
2023/03/20 03:24:05;;;;;;;20.13;9.40;;;;;;;-145.18;100.00;60484.78;5020827;28;20524;-59
2023/03/20 03:26:39;;;;;;;23.53;9.97;;;;;;;-145.18;100.00;60484.78;5016863;28;20390;-59
2023/03/20 03:29:15;;;;;;;21.77;9.87;;;;;;;-145.18;100.00;60484.78;5023592;28;20030;-59
2023/03/20 03:31:43;;;;;;;21.67;9.77;;;;;;;-145.18;100.00;60484.78;5023543;28;20030;-60
2023/03/20 03:34:14;;;;;;;21.67;11.17;;;;;;;-145.18;100.00;60484.78;5018457;28;20490;-59
2023/03/20 03:37:15;;;;;;;26.52;11.48;;;;;;;-145.18;100.00;60484.78;5021549;28;20393;-59
2023/03/20 03:40:00;;;;;;;21.63;10.48;;;;;;;-145.18;100.00;60484.78;4989387;28;20117;-59
2023/03/20 03:42:43;;;;;;;23.13;10.37;;;;;;;-145.18;100.00;60484.78;5027830;28;20473;-59
2023/03/20 03:45:18;;;;;;;25.47;10.83;;;;;;;-145.18;100.00;60484.78;5020318;28;20034;-59
2023/03/20 03:47:49;;;;;;;25.03;11.57;;;;;;;-145.18;100.00;60484.78;5029540;28;20413;-59
2023/03/20 03:50:21;;;;;;;;;;;;;;;-145.18;100.00;60484.78;5028181;28;20449;-59
2023/03/20 03:52:50;;;;;;;24.05;10.85;;;;;;;-145.18;100.00;60484.78;5019764;28;19924;-59
2023/03/20 03:55:22;;;;;;;26.10;11.27;;;;;;;-145.18;100.00;60484.78;5018389;28;20030;-59
2023/03/20 03:57:56;;;;;;;23.43;10.83;;;;;;;-145.18;100.00;60484.78;5024677;28;20392;-59
2023/03/20 04:00:25;;;;;;;26.27;12.03;;;;;;;-145.18;100.00;60484.78;5034352;28;20477;-59
2023/03/20 04:02:55;;;;;;;25.60;11.87;;;;;;;-145.18;100.00;60484.78;5034425;28;20057;-59
2023/03/20 04:05:23;;;;;;;23.57;11.33;;;;;;;-145.18;100.00;60484.78;5025533;28;20094;-59
2023/03/20 04:07:53;;;;;;;27.20;11.13;;;;;;;-145.18;100.00;60484.78;5023513;28;20117;-59
2023/03/20 04:10:19;;;;;;;24.50;12.00;;;;;;;-145.18;100.00;60484.78;5024070;28;20026;-59
2023/03/20 04:12:45;;;;;;;29.23;12.37;;;;;;;-145.18;100.00;60484.78;5017359;28;20037;-59
2023/03/20 04:15:12;;;;;;;27.77;12.07;;;;;;;-145.18;100.00;60484.78;5031978;28;20036;-59
2023/03/20 04:17:38;;;;;;;30.27;13.27;;;;;;;-145.18;100.00;60484.78;5019656;28;20036;-59
2023/03/20 04:20:05;;;;;;;32.03;13.17;;;;;;;-145.18;100.00;60484.78;5024957;28;20457;-59
2023/03/20 04:22:33;;;;;;;29.20;12.73;;;;;;;-145.18;100.00;60484.78;5033767;28;20071;-59
2023/03/20 04:25:00;;;;;;;30.63;13.27;;;;;;;-145.18;100.00;60484.78;5026810;28;20032;-59
2023/03/20 04:27:26;;;;;;;29.00;12.97;;;;;;;-145.18;100.00;60484.78;5022422;28;20033;-59
2023/03/20 04:29:51;;;;;;;32.40;14.47;;;;;;;-145.18;100.00;60484.78;5016638;28;20030;-59
2023/03/20 04:32:17;;;;;;;32.67;13.50;;;;;;;-145.18;100.00;60484.78;5021103;28;20029;-59
2023/03/20 04:34:42;;;;;;;29.30;13.13;;;;;;;-145.18;100.00;60484.78;5015453;28;20080;-59
2023/03/20 04:37:08;;;;;;;34.43;14.77;;;;;;;-145.18;100.00;60484.78;5015075;28;20367;-59
2023/03/20 04:39:35;;;;;;;35.40;14.40;;;;;;;-145.18;100.00;60484.78;5020191;28;20145;-60
2023/03/20 04:42:01;;;;;;;31.80;13.83;;;;;;;-145.18;100.00;60484.78;5026450;28;20040;-60
2023/03/20 04:44:27;;;;;;;28.90;13.27;;;;;;;-145.18;100.00;60484.78;5026983;28;20091;-59
2023/03/20 04:46:52;;;;;;;26.67;11.93;;;;;;;-145.18;100.00;60484.78;5016516;28;20025;-59
2023/03/20 04:49:18;;;;;;;25.40;11.57;;;;;;;-145.18;100.00;60484.78;5019713;28;20117;-59
2023/03/20 04:51:43;;;;;;;29.60;12.50;;;;;;;-145.18;100.00;60484.78;5016927;28;20059;-59
2023/03/20 04:54:09;;;;;;;17.73;8.47;;;;;;;-145.18;100.00;60484.78;5014888;28;20061;-60
2023/03/20 04:56:34;;;;;;;18.37;9.23;;;;;;;-145.18;100.00;60484.78;5021852;28;20033;-59
2023/03/20 04:59:00;;;;;;;24.20;11.23;;;;;;;-145.18;100.00;60484.78;5033096;28;20030;-59
2023/03/20 05:01:25;;;;;;;23.73;10.57;;;;;;;-145.18;100.00;60484.78;5027520;28;20489;-59
2023/03/20 05:03:51;;;;;;;20.30;9.03;;;;;;;-145.18;100.00;60484.78;5020704;28;20029;-59
2023/03/20 05:06:16;;;;;;;20.13;8.97;;;;;;;-145.18;100.00;60484.78;5027183;28;20017;-59
2023/03/20 05:08:42;;;;;;;22.77;10.43;;;;;;;-145.18;100.00;60484.78;5026585;28;20029;-59
2023/03/20 05:11:07;;;;;;;19.87;8.67;;;;;;;-145.18;100.00;60484.78;5017714;28;20494;-59
2023/03/20 05:13:33;;;;;;;18.17;8.87;;;;;;;-145.18;100.00;60484.78;5019416;28;20109;-60
2023/03/20 05:15:58;;;;;;;19.27;8.93;;;;;;;-145.18;100.00;60484.78;5020388;28;20079;-59
2023/03/20 05:18:24;;;;;;;16.63;7.43;;;;;;;-145.18;100.00;60484.78;5027784;28;20033;-59
2023/03/20 05:20:49;;;;;;;20.37;8.47;;;;;;;-145.18;100.00;60484.78;5014286;28;20105;-59
2023/03/20 05:23:15;;;;;;;18.97;8.23;;;;;;;-145.18;100.00;60484.78;5030522;28;20052;-60
2023/03/20 05:25:40;;;;;;;16.97;8.53;;;;;;;-145.18;100.00;60484.78;5022877;28;20026;-59
2023/03/20 05:28:06;;;;;;;18.00;7.93;;;;;;;-145.18;100.00;60484.78;5016498;28;20099;-60
2023/03/20 05:30:32;;;;;;;14.20;6.40;;;;;;;-145.18;100.00;60484.78;5021832;28;20382;-59
2023/03/20 05:32:57;;;;;;;16.90;7.00;;;;;;;-145.18;100.00;60484.78;5015009;28;20030;-59
2023/03/20 05:35:23;;;;;;;21.17;8.30;;;;;;;-145.18;100.00;60484.78;5027722;28;20108;-59
2023/03/20 05:37:48;;;;;;;18.77;8.37;;;;;;;-145.18;100.00;60484.78;5017357;28;20026;-59
2023/03/20 05:40:15;;;;;;;17.30;8.40;;;;;;;-145.18;100.00;60484.78;5024321;28;20377;-60
2023/03/20 05:42:40;;;;;;;18.27;8.97;;;;;;;-145.18;100.00;60484.78;5015772;28;20018;-59
2023/03/20 05:45:07;;;;;;;17.57;7.87;;;;;;;-145.18;100.00;60484.78;5027360;28;20036;-60
2023/03/20 05:47:32;;;;;;;18.97;8.33;;;;;;;-145.18;100.00;60484.78;5025676;28;20034;-59
2023/03/20 05:49:58;;;;;;;20.70;8.80;;;;;;;-145.18;100.00;60484.78;5014030;28;20514;-59
2023/03/20 05:52:24;;;;;;;20.93;9.93;;;;;;;-145.18;100.00;60484.78;5024090;28;20030;-59
2023/03/20 05:54:49;;;;;;;24.03;9.40;;;;;;;-145.18;100.00;60484.78;5028396;28;20483;-59
2023/03/20 05:57:16;;;;;;;23.20;9.67;;;;;;;-145.18;100.00;60484.78;5025837;28;20021;-57
2023/03/20 05:59:42;;;;;;;21.17;9.80;;;;;;;-145.18;100.00;60484.78;5029310;28;20029;-58
2023/03/20 06:02:08;;;;;;;17.40;8.57;;;;;;;-145.18;100.00;60484.78;5031868;28;20017;-58
2023/03/20 06:04:36;;;;;;;22.83;9.47;;;;;;;-145.18;100.00;60484.78;5026906;28;20033;-58
2023/03/20 06:07:02;;;;;;;19.73;9.00;;;;;;;-145.18;100.00;60484.78;5024426;28;20053;-59
2023/03/20 06:09:28;;;;;;;19.83;8.97;;;;;;;-145.18;100.00;60484.78;5013424;28;20038;-58
2023/03/20 06:11:53;;;;;;;20.13;9.57;;;;;;;-145.18;100.00;60484.78;5013593;28;20045;-58
2023/03/20 06:14:19;;;;;;;18.77;8.40;;;;;;;-145.18;100.00;60484.78;5025775;28;20032;-58
2023/03/20 06:16:44;;;;;;;21.23;9.83;;;;;;;-145.18;100.00;60484.78;5030134;28;20045;-58
2023/03/20 06:19:10;;;;;;;18.63;9.33;;;;;;;-145.18;100.00;60484.78;5016616;28;20048;-59
2023/03/20 06:21:36;;;;;;;21.13;9.80;;;;;;;-145.18;100.00;60484.78;5023453;28;20442;-58
2023/03/20 06:24:01;;;;;;;19.60;9.57;;;;;;;-145.18;100.00;60484.78;5015768;28;20374;-58
2023/03/20 06:26:26;;;;;;;21.73;11.03;;;;;;;-145.18;100.00;60484.78;5014038;28;20032;-59
2023/03/20 06:28:52;;;;;;;21.90;10.17;;;;;;;-145.18;100.00;60484.78;5025892;28;20034;-59
2023/03/20 06:31:17;;;;;;;22.60;10.43;;;;;;;-145.18;100.00;60484.78;5022714;28;20087;-58
2023/03/20 06:33:44;;;;;;;19.17;8.97;;;;;;;-145.18;100.00;60484.78;5020701;28;20124;-57
2023/03/20 06:36:10;;;;;;;18.80;9.20;;;;;;;-145.18;100.00;60484.78;5024699;28;20030;-58
2023/03/20 06:38:35;;;;;;;20.43;8.70;;;;;;;-145.18;100.00;60484.78;5025338;28;20026;-58
2023/03/20 06:41:01;;;;;;;18.73;10.30;;;;;;;-145.18;100.00;60484.78;5031021;28;20493;-58
2023/03/20 06:43:26;;;;;;;23.03;10.20;;;;;;;-145.18;100.00;60484.78;5030909;28;20028;-58
2023/03/20 06:45:52;;;;;;;25.67;10.50;;;;;;;-145.18;100.00;60484.78;5031128;28;20045;-60
2023/03/20 06:48:20;;;;;;;20.83;9.47;;;;;;;-145.18;100.00;60484.78;5030127;28;20026;-58
2023/03/20 06:50:48;;;;;;;23.80;10.87;;;;;;;-145.18;100.00;60484.78;5025607;28;20022;-58
2023/03/20 06:53:13;;;;;;;23.27;10.87;;;;;;;-145.18;100.00;60484.78;5016278;28;20033;-57
2023/03/20 06:55:39;;;;;;;18.30;9.83;;;;;;;-145.18;100.00;60484.78;5030711;28;20109;-57
2023/03/20 06:58:04;;;;;;;21.40;10.10;;;;;;;-145.18;100.00;60484.78;5029615;28;20541;-58
2023/03/20 07:00:31;;;;;;;21.33;9.47;;;;;;;-145.18;100.00;60484.78;5029944;28;20104;-58
2023/03/20 07:02:57;;;;;;;22.33;10.33;;;;;;;-145.18;100.00;60484.78;5027950;28;20482;-58
2023/03/20 07:05:22;;;;;;;18.73;9.17;;;;;;;-145.18;100.00;60484.78;5011376;28;20022;-58
2023/03/20 07:07:48;;;;;;;22.70;10.10;;;;;;;-145.18;100.00;60484.78;5012854;28;20121;-58
2023/03/20 07:10:13;;;;;;;25.10;11.07;;;;;;;-145.18;100.00;60484.78;5018355;28;20029;-57
2023/03/20 07:12:39;;;;;;;21.00;10.13;;;;;;;-145.18;100.00;60484.78;5018456;28;20052;-59
2023/03/20 07:15:05;;;;;;;23.00;10.47;;;;;;;-145.18;100.00;60484.78;5031093;28;20032;-59
2023/03/20 07:17:31;;;;;;;24.03;11.97;;;;;;;-145.18;100.00;60484.78;5031267;28;20385;-58
2023/03/20 07:19:56;;;;;;;28.00;12.73;;;;;;;-145.18;100.00;60484.78;5033357;28;20022;-60
2023/03/20 07:22:24;;;;;;;33.23;13.70;;;;;;;-145.18;100.00;60484.78;5035054;28;20017;-59
2023/03/20 07:24:50;;;;;;;25.53;12.37;;;;;;;-145.18;100.00;60484.78;5024718;28;20030;-58
2023/03/20 07:27:16;;;;;;;27.63;12.20;;;;;;;-145.18;100.00;60484.78;5020496;28;20040;-58
2023/03/20 07:29:42;;;;;;;24.20;11.10;;;;;;;-145.18;100.00;60484.78;5028644;28;20112;-59
2023/03/20 07:32:08;;;;;;;23.07;9.87;;;;;;;-145.18;100.00;60484.78;5034844;28;20100;-58
2023/03/20 07:34:33;;;;;;;23.57;11.30;;;;;;;-145.18;100.00;60484.78;5035282;28;20652;-59
2023/03/20 07:36:59;;;;;;;25.27;11.93;;;;;;;-145.18;100.00;60484.78;5034810;28;20031;-59
2023/03/20 07:39:24;;;;;;;23.40;11.70;;;;;;;-145.18;100.00;60484.78;5035017;28;20025;-58
2023/03/20 07:41:50;;;;;;;23.63;10.83;;;;;;;-145.18;100.00;60484.78;5033674;28;20033;-59
2023/03/20 07:44:18;;;;;;;22.47;10.00;;;;;;;-145.18;100.00;60484.78;5033709;28;20030;-58
2023/03/20 07:46:45;;;;;;;21.60;10.97;;;;;;;-145.18;100.00;60484.78;5027327;28;20036;-59
2023/03/20 07:49:17;;;;;;;21.37;11.07;;;;;;;-145.18;100.00;60484.78;5034434;28;20053;-59
2023/03/20 07:51:43;;;;;;;19.95;10.38;;;;;;;-145.18;100.00;60484.78;5034700;28;20021;-58
2023/03/20 07:54:08;;;;;;;19.80;10.97;;;;;;;-145.18;100.00;60484.78;5020026;28;20053;-58
2023/03/20 07:56:34;;;;;;;20.13;10.30;;;;;;;-145.18;100.00;60484.78;5015942;28;20022;-59
2023/03/20 07:58:59;;;;;;;18.83;9.57;;;;;;;-145.18;100.00;60484.78;5015731;28;20514;-59
2023/03/20 08:01:25;;;;;;;16.43;9.97;;;;;;;-145.18;100.00;60484.78;5016350;28;20025;-58
2023/03/20 08:03:50;;;;;;;19.63;11.00;;;;;;;-145.18;100.00;60484.78;5025981;28;20025;-58
2023/03/20 08:06:16;;;;;;;21.30;11.33;;;;;;;-145.18;100.00;60484.78;5034191;28;20059;-59
2023/03/20 08:08:41;;;;;;;22.73;11.87;;;;;;;-145.18;100.00;60484.78;5034575;28;20108;-59
2023/03/20 08:11:07;;;;;;;18.13;9.03;;;;;;;-145.18;100.00;60484.78;5034011;28;20112;-59
2023/03/20 08:13:32;;;;;;;22.30;10.63;;;;;;;-145.18;100.00;60484.78;5034149;28;20043;-58
2023/03/20 08:15:58;;;;;;;18.33;8.90;;;;;;;-145.18;100.00;60484.78;5034347;28;20477;-58
2023/03/20 08:18:23;;;;;;;12.93;6.87;;;;;;;-145.18;100.00;60484.78;5034121;28;20030;-59
2023/03/20 08:20:49;;;;;;;12.37;6.03;;;;;;;-145.18;100.00;60484.78;5033353;28;20064;-59
2023/03/20 08:23:15;;;;;;;13.30;7.03;;;;;;;-145.18;100.00;60484.78;5032868;28;20100;-60
2023/03/20 08:25:46;;;;;;;9.80;5.10;;;;;;;-145.18;100.00;60484.78;5030329;28;20554;-60
2023/03/20 08:28:11;;;;;;;18.47;7.30;;;;;;;-145.18;100.00;60484.78;5033789;28;20036;-59
2023/03/20 08:30:37;;;;;;;13.30;6.17;;;;;;;-145.18;100.00;60484.78;5019504;28;20033;-59
2023/03/20 08:33:02;;;;;;;10.70;5.50;;;;;;;-145.18;100.00;60484.78;5018867;28;20029;-59
2023/03/20 08:35:28;;;;;;;9.60;4.97;;;;;;;-145.18;100.00;60484.78;5019384;28;20037;-59
2023/03/20 08:37:54;;;;;;;10.43;5.87;;;;;;;-145.18;100.00;60484.78;5026147;28;20025;-59
2023/03/20 08:40:19;;;;;;;9.93;4.60;;;;;;;-145.18;100.00;60484.78;5034176;28;20056;-60
2023/03/20 08:42:45;;;;;;;9.83;5.17;;;;;;;-145.18;100.00;60484.78;5034321;28;20430;-59
2023/03/20 08:45:11;;;;;;;19.00;6.17;;;;;;;-145.18;100.00;60484.78;5033845;28;20049;-60
2023/03/20 08:47:36;;;;;;;9.00;4.63;;;;;;;-145.18;100.00;60484.78;5034036;28;20382;-60
2023/03/20 08:50:02;;;;;;;11.23;6.30;;;;;;;-145.18;100.00;60484.78;5033745;28;20033;-59
2023/03/20 08:52:28;;;;;;;14.40;6.10;;;;;;;-145.18;100.00;60484.78;5033441;28;20036;-59
2023/03/20 08:54:53;;;;;;;10.83;5.10;;;;;;;-145.18;100.00;60484.78;5032970;28;20504;-60
2023/03/20 08:57:19;;;;;;;12.33;5.30;;;;;;;-145.18;100.00;60484.78;5033044;28;20040;-59
2023/03/20 08:59:44;;;;;;;20.20;5.30;;;;;;;-145.18;100.00;60484.78;5033310;28;20033;-59
2023/03/20 09:02:11;;;;;;;12.47;5.70;;;;;;;-145.18;100.00;60484.78;5033270;28;20457;-57
2023/03/20 09:04:36;;;;;;;12.20;5.10;;;;;;;-145.18;100.00;60484.78;5033022;28;20363;-57
2023/03/20 09:07:02;;;;;;;11.17;5.30;;;;;;;-145.18;100.00;60484.78;5033597;28;20040;-57
2023/03/20 09:09:28;;;;;;;11.47;5.07;;;;;;;-145.18;100.00;60484.78;5033398;28;20079;-57
2023/03/20 09:11:55;;;;;;;10.43;4.70;;;;;;;-145.18;100.00;60484.78;5032090;28;20386;-57
2023/03/20 09:14:22;;;;;;;9.87;3.70;;;;;;;-145.18;100.00;60484.78;5033429;28;20033;-58
2023/03/20 09:16:47;;;;;;;13.10;5.20;;;;;;;-145.18;100.00;60484.78;5033146;28;20052;-58
2023/03/20 09:19:13;;;;;;;12.30;4.73;;;;;;;-145.18;100.00;60484.78;5031700;28;20037;-58
2023/03/20 09:21:38;;;;;;;14.67;4.80;;;;;;;-145.18;100.00;60484.78;5032997;28;20025;-57
2023/03/20 09:24:04;;;;;;;11.53;4.40;;;;;;;-145.18;100.00;60484.78;5031740;28;20026;-58
2023/03/20 09:26:30;;;;;;;10.37;5.23;;;;;;;-145.18;100.00;60484.78;5032820;28;20029;-57
2023/03/20 09:28:55;;;;;;;11.53;4.33;;;;;;;-145.18;100.00;60484.78;5032039;28;20367;-57
2023/03/20 09:31:22;;;;;;;10.80;4.60;;;;;;;-145.18;100.00;60484.78;5032940;28;20025;-57
2023/03/20 09:33:47;;;;;;;9.73;3.73;;;;;;;-145.18;100.00;60484.78;5032576;28;20036;-58
2023/03/20 09:36:14;;;;;;;9.47;3.83;;;;;;;-145.18;100.00;60484.78;5032845;28;20025;-57
2023/03/20 09:38:41;;;;;;;9.03;4.33;;;;;;;-145.18;100.00;60484.78;5032723;28;20021;-57
2023/03/20 09:41:16;;;;;;;9.40;4.43;;;;;;;-145.18;100.00;60484.78;5028575;28;20025;-57
2023/03/20 09:44:22;;;;;;;11.20;4.17;;;;;;;-145.18;100.00;60484.78;5025152;28;20504;-60
2023/03/20 09:47:33;;;;;;;10.37;3.63;;;;;;;-145.18;100.00;60484.78;4952605;28;20075;-57
2023/03/20 09:50:28;;;;;;;10.43;4.60;;;;;;;-145.18;100.00;60484.78;4951321;28;20047;-59
2023/03/20 09:53:05;;;;;;;9.43;4.70;;;;;;;-145.18;100.00;60484.78;4943286;28;20535;-58
2023/03/20 09:55:36;;;;;;;10.03;3.60;;;;;;;-145.18;100.00;60484.78;4953158;28;20130;-59
2023/03/20 09:58:22;;;;;;;12.37;4.10;;;;;;;-145.18;100.00;60484.78;4953347;28;20031;-58
2023/03/20 10:00:47;;;;;;;11.90;4.73;;;;;;;-145.18;100.00;60484.78;4953054;28;20031;-58
2023/03/20 10:03:23;;;;;;;12.40;4.77;;;;;;;-145.18;100.00;60484.78;4953376;28;20039;-58
2023/03/20 10:05:56;;;;;;;11.57;4.93;;;;;;;-145.18;100.00;60484.78;4952903;28;20023;-58
2023/03/20 10:08:27;;;;;;;12.83;5.10;;;;;;;-145.18;100.00;60484.78;4951003;28;20035;-58
2023/03/20 10:11:45;;;;;;;8.73;3.55;;;;;;;-145.18;100.00;60484.78;4953040;28;20034;-58
2023/03/20 10:14:45;;;;;;;10.50;4.23;;;;;;;-145.18;100.00;60484.78;4894800;28;20039;-58
2023/03/20 10:17:41;;;;;;;9.60;3.83;;;;;;;-145.18;100.00;60484.78;4952777;28;20035;-59
2023/03/20 10:20:30;;;;;;;14.37;4.70;;;;;;;-145.18;100.00;60484.78;4964625;28;20026;-58
2023/03/20 10:23:15;;;;;;;10.67;4.43;;;;;;;-145.18;100.00;60484.78;5011258;28;20042;-58
2023/03/20 10:25:49;;;;;;;9.50;4.60;;;;;;;-145.18;100.00;60484.78;5029246;28;20017;-58
2023/03/20 10:28:44;;;;;;;11.03;4.60;;;;;;;-145.18;100.00;60484.78;5030818;28;20369;-58
2023/03/20 10:31:28;;;;;;;13.87;5.00;;;;;;;-145.18;100.00;60484.78;5031469;28;20036;-58
2023/03/20 10:34:27;;;;;;;11.63;4.87;;;;;;;-145.18;100.00;60484.78;5031661;28;20401;-58
2023/03/20 10:37:10;;;;;;;9.67;4.77;;;;;;;-145.18;100.00;60484.78;5030769;28;20581;-58
2023/03/20 10:40:03;;;;;;;8.87;4.80;;;;;;;-145.18;100.00;60484.78;5031682;28;20424;-58
2023/03/20 10:42:32;;;;;;;10.33;5.13;;;;;;;-145.18;100.00;60484.78;4952254;28;20039;-59
2023/03/20 10:45:26;;;;;;;9.50;4.10;;;;;;;-145.18;100.00;60484.78;4952054;28;20039;-58
2023/03/20 10:47:54;;;;;;;9.20;4.00;;;;;;;-145.18;100.00;60484.78;4913601;28;20044;-58
2023/03/20 10:50:36;;;;;;;10.80;4.90;;;;;;;-145.18;100.00;60484.78;4913501;29;20093;-58
2023/03/20 10:53:04;;;;;;;11.87;4.47;;;;;;;-145.18;100.00;60484.78;4911263;29;20044;-58
2023/03/20 10:55:38;;;;;;;14.57;4.83;;;;;;;-145.18;100.00;60484.78;4912989;29;20036;-58
2023/03/20 10:58:18;;;;;;;11.97;4.70;;;;;;;-145.18;100.00;60484.78;4908565;29;20536;-58
2023/03/20 11:00:44;;;;;;;10.90;4.70;;;;;;;-145.18;100.00;60484.78;4893377;29;20059;-58
2023/03/20 11:03:20;;;;;;;12.93;4.77;;;;;;;-145.18;100.00;60484.78;4912371;29;20154;-58
2023/03/20 11:05:51;;;;;;;12.30;3.97;;;;;;;-145.18;100.00;60484.78;4912284;29;20063;-58
2023/03/20 11:08:23;;;;;;;9.13;3.85;;;;;;;-145.18;100.00;60484.78;4912862;29;20501;-58
2023/03/20 11:10:58;;;;;;;12.30;4.30;;;;;;;-145.18;100.00;60484.78;4906922;29;20055;-58
2023/03/20 11:13:40;;;;;;;10.60;4.30;;;;;;;-145.18;100.00;60484.78;4913430;29;20032;-58
2023/03/20 11:16:30;;;;;;;10.27;4.73;;;;;;;-145.18;100.00;60484.78;4913371;29;20119;-58
2023/03/20 11:19:05;;;;;;;8.80;3.90;;;;;;;-145.18;100.00;60484.78;4950246;28;20039;-58
2023/03/20 11:21:30;;;;;;;8.80;4.20;;;;;;;-145.18;100.00;60484.78;4951976;28;20030;-58